Time;durP1;ratioP1;P1;durP2;ratioP2;P2;SDS_P1;SDS_P2;PMS_P1;PMS_P2;Temp;Humidity;BMP_temperature;BMP_pressure;BME280_temperature;BME280_humidity;BME280_pressure;Samples;Min_cycle;Max_cycle;Signal;HPM_P1;HPM_P2
2022/04/02 00:07:55;;;;;;;0.88;0.40;;;;;;;;;;20255236;29;20049;-85
2022/04/02 00:17:56;;;;;;;0.38;0.38;;;;;;;;;;20201990;29;20048;-85
2022/04/02 00:27:58;;;;;;;0.52;0.43;;;;;;;;;;20226207;29;20045;-86
2022/04/02 00:38:00;;;;;;;0.35;0.35;;;;;;;;;;20183942;29;20135;-84
2022/04/02 00:48:02;;;;;;;1.95;0.50;;;;;;;;;;20203472;29;20057;-85
2022/04/02 00:58:05;;;;;;;0.73;0.50;;;;;;;;;;20209984;29;20053;-83
2022/04/02 01:08:07;;;;;;;0.40;0.40;;;;;;;;;;20208594;29;20072;-85
2022/04/02 01:18:09;;;;;;;0.45;0.40;;;;;;;;;;20176044;29;20145;-83
2022/04/02 01:28:12;;;;;;;0.45;0.45;;;;;;;;;;20173434;29;20069;-84
2022/04/02 01:38:14;;;;;;;0.68;0.40;;;;;;;;;;20227072;29;20056;-84
2022/04/02 01:48:16;;;;;;;0.30;0.30;;;;;;;;;;20214888;29;20092;-84
2022/04/02 01:58:26;;;;;;;0.57;0.32;;;;;;;;;;20174153;29;20048;-84
2022/04/02 02:08:31;;;;;;;0.60;0.33;;;;;;;;;;20181218;29;20139;-89
2022/04/02 02:18:42;;;;;;;0.55;0.40;;;;;;;;;;20223323;29;20059;-85
2022/04/02 02:28:44;;;;;;;0.40;0.40;;;;;;;;;;20215218;29;20073;-84
2022/04/02 02:38:56;;;;;;;1.27;0.60;;;;;;;;;;20206905;29;20044;-84
2022/04/02 02:49:07;;;;;;;0.75;0.40;;;;;;;;;;20191063;29;20052;-85
2022/04/02 02:59:12;;;;;;;0.50;0.43;;;;;;;;;;20209160;29;20496;-83
2022/04/02 03:09:14;;;;;;;0.40;0.40;;;;;;;;;;20219168;29;20037;-83
2022/04/02 03:19:19;;;;;;;1.40;0.40;;;;;;;;;;20192869;29;20061;-83
2022/04/02 03:29:25;;;;;;;0.30;0.30;;;;;;;;;;20220338;29;20045;-84
2022/04/02 03:39:27;;;;;;;1.30;0.50;;;;;;;;;;20215381;29;20063;-84
2022/04/02 03:49:29;;;;;;;1.27;0.40;;;;;;;;;;20208856;29;20047;-83
2022/04/02 03:59:31;;;;;;;1.25;0.45;;;;;;;;;;20200266;29;20048;-84
2022/04/02 04:09:34;;;;;;;0.40;0.40;;;;;;;;;;20186890;29;20052;-84
2022/04/02 04:19:36;;;;;;;0.52;0.40;;;;;;;;;;20208808;29;20084;-84
2022/04/02 04:29:40;;;;;;;0.80;0.60;;;;;;;;;;20206284;29;20133;-85
2022/04/02 04:39:42;;;;;;;0.52;0.40;;;;;;;;;;20168286;29;20045;-84
2022/04/02 04:49:46;;;;;;;2.70;0.75;;;;;;;;;;20172546;29;20120;-85
2022/04/02 04:59:48;;;;;;;3.53;0.75;;;;;;;;;;20200744;29;20095;-86
2022/04/02 05:09:57;;;;;;;2.67;0.50;;;;;;;;;;20208162;29;20402;-84
2022/04/02 05:20:00;;;;;;;1.83;0.68;;;;;;;;;;20185286;29;20072;-84
2022/04/02 05:30:03;;;;;;;0.77;0.50;;;;;;;;;;20222408;29;20057;-85
2022/04/02 05:40:06;;;;;;;2.58;0.70;;;;;;;;;;20170975;29;20056;-85
2022/04/02 05:50:09;;;;;;;0.63;0.50;;;;;;;;;;20154188;29;20053;-85
2022/04/02 06:00:31;;;;;;;1.38;0.68;;;;;;;;;;20172050;29;20049;-83
2022/04/02 06:10:37;;;;;;;2.97;0.52;;;;;;;;;;20179980;29;20041;-87
2022/04/02 06:20:38;;;;;;;1.35;0.50;;;;;;;;;;20158205;29;20061;-90
2022/04/02 06:30:40;;;;;;;2.38;0.47;;;;;;;;;;20197954;29;20076;-88
2022/04/02 06:40:42;;;;;;;0.30;0.30;;;;;;;;;;20165731;29;20061;-90
2022/04/02 06:50:43;;;;;;;0.73;0.47;;;;;;;;;;20179936;29;20488;-90
2022/04/02 07:00:45;;;;;;;1.15;0.65;;;;;;;;;;20179548;29;20144;-90
2022/04/02 07:10:47;;;;;;;1.13;0.50;;;;;;;;;;20162041;29;20057;-86
2022/04/02 07:20:51;;;;;;;1.23;0.52;;;;;;;;;;20178226;29;20422;-85
2022/04/02 07:30:53;;;;;;;1.33;0.43;;;;;;;;;;20192176;29;20045;-86
2022/04/02 07:41:06;;;;;;;1.20;0.67;;;;;;;;;;20176028;29;20052;-85
2022/04/02 07:51:12;;;;;;;1.00;0.50;;;;;;;;;;20192975;29;20060;-85
2022/04/02 08:01:16;;;;;;;1.17;0.70;;;;;;;;;;20192603;29;20059;-85
2022/04/02 08:11:19;;;;;;;0.85;0.60;;;;;;;;;;20173599;29;20139;-85
2022/04/02 08:21:23;;;;;;;0.90;0.60;;;;;;;;;;20158635;29;20073;-86
2022/04/02 08:31:29;;;;;;;1.65;0.70;;;;;;;;;;20172599;29;20047;-86
2022/04/02 08:41:31;;;;;;;0.82;0.60;;;;;;;;;;20171587;29;20144;-85
2022/04/02 08:51:41;;;;;;;1.13;0.77;;;;;;;;;;20188267;29;20052;-86
2022/04/02 09:01:53;;;;;;;1.00;0.60;;;;;;;;;;20172377;29;20053;-86
2022/04/02 09:12:15;;;;;;;1.80;0.77;;;;;;;;;;20187253;29;20393;-86
2022/04/02 09:22:26;;;;;;;1.15;0.60;;;;;;;;;;20170654;29;20152;-86
2022/04/02 09:33:03;;;;;;;1.17;0.65;;;;;;;;;;20187038;29;20045;-85
2022/04/02 09:43:12;;;;;;;1.50;0.70;;;;;;;;;;20101582;29;20519;-85
2022/04/02 09:53:25;;;;;;;1.05;0.52;;;;;;;;;;20188955;29;20140;-86
2022/04/02 10:03:51;;;;;;;1.20;0.80;;;;;;;;;;20200181;29;20049;-86
2022/04/02 10:13:53;;;;;;;;;;;;;;;;;;20199935;29;20109;-86
2022/04/02 10:24:05;;;;;;;0.98;0.47;;;;;;;;;;20198953;29;20022;-86
2022/04/02 10:34:09;;;;;;;0.60;0.30;;;;;;;;;;20198027;29;20053;-86
2022/04/02 10:44:31;;;;;;;1.45;0.60;;;;;;;;;;20191922;29;20055;-85
2022/04/02 10:54:34;;;;;;;0.90;0.45;;;;;;;;;;20221557;29;20128;-91
2022/04/02 11:04:47;;;;;;;0.52;0.40;;;;;;;;;;20272273;29;20504;-86
2022/04/02 11:14:52;;;;;;;0.95;0.57;;;;;;;;;;20255382;29;20633;-86
2022/04/02 11:25:07;;;;;;;0.57;0.40;;;;;;;;;;20271966;29;20052;-88
2022/04/02 11:35:16;;;;;;;0.93;0.50;;;;;;;;;;20254309;29;20513;-86
2022/04/02 11:45:19;;;;;;;0.82;0.38;;;;;;;;;;20270113;29;20059;-86
2022/04/02 11:55:22;;;;;;;1.27;0.47;;;;;;;;;;20268990;29;20076;-84
2022/04/02 12:05:42;;;;;;;1.10;0.50;;;;;;;;;;20260523;29;20061;-86
2022/04/02 12:16:04;;;;;;;0.52;0.50;;;;;;;;;;20190060;29;20080;-85
2022/04/02 12:26:08;;;;;;;1.27;0.50;;;;;;;;;;20189347;29;20084;-89
2022/04/02 12:36:09;;;;;;;1.00;0.50;;;;;;;;;;20189776;29;20385;-88
2022/04/02 12:46:21;;;;;;;1.48;0.40;;;;;;;;;;20189963;29;20049;-92
2022/04/02 12:56:24;;;;;;;0.98;0.30;;;;;;;;;;20178953;29;20044;-91
2022/04/02 13:06:28;;;;;;;0.60;0.50;;;;;;;;;;20195785;29;20057;-93
2022/04/02 13:16:38;;;;;;;1.75;0.45;;;;;;;;;;20178243;29;20096;-93
2022/04/02 13:26:50;;;;;;;1.00;0.63;;;;;;;;;;20195956;29;20164;-93
2022/04/02 13:37:11;;;;;;;0.77;0.50;;;;;;;;;;20210056;29;20147;-92
2022/04/02 13:47:31;;;;;;;0.75;0.57;;;;;;;;;;20194715;29;20060;-91
2022/04/02 13:57:34;;;;;;;1.02;0.40;;;;;;;;;;20210642;29;20053;-87
2022/04/02 14:07:41;;;;;;;0.60;0.40;;;;;;;;;;20201217;29;20072;-86
2022/04/02 14:17:44;;;;;;;0.73;0.50;;;;;;;;;;20182345;29;20147;-85
2022/04/02 14:27:53;;;;;;;0.70;0.50;;;;;;;;;;20182069;29;20090;-88
2022/04/02 14:38:01;;;;;;;0.57;0.40;;;;;;;;;;20197263;29;20053;-88
2022/04/02 14:48:06;;;;;;;1.15;0.50;;;;;;;;;;20180336;29;20140;-91
2022/04/02 14:58:25;;;;;;;0.90;0.43;;;;;;;;;;20196395;29;20057;-89
2022/04/02 15:08:37;;;;;;;0.40;0.40;;;;;;;;;;20195659;29;20080;-91
2022/04/02 15:18:39;;;;;;;1.20;0.68;;;;;;;;;;20194774;29;20072;-91
2022/04/02 15:28:41;;;;;;;0.90;0.60;;;;;;;;;;20177707;29;20140;-90
2022/04/02 15:38:51;;;;;;;1.40;0.40;;;;;;;;;;20177199;29;20387;-90
2022/04/02 15:49:16;;;;;;;1.67;0.52;;;;;;;;;;20194034;29;20068;-91
2022/04/02 15:59:17;;;;;;;0.70;0.50;;;;;;;;;;20175524;29;20470;-91
2022/04/02 16:09:19;;;;;;;0.63;0.40;;;;;;;;;;20174522;29;20060;-91
2022/04/02 16:19:38;;;;;;;1.10;0.55;;;;;;;;;;20173705;29;20069;-92
2022/04/02 16:29:41;;;;;;;0.68;0.40;;;;;;;;;;20189577;29;20146;-90
2022/04/02 16:39:44;;;;;;;0.55;0.30;;;;;;;;;;20189167;29;20056;-89
2022/04/02 16:49:47;;;;;;;0.55;0.32;;;;;;;;;;20188829;29;20484;-91
2022/04/02 17:00:09;;;;;;;0.75;0.50;;;;;;;;;;20188019;29;20052;-90
2022/04/02 17:10:31;;;;;;;1.58;0.30;;;;;;;;;;20170647;29;20056;-87
2022/04/02 17:20:33;;;;;;;0.82;0.32;;;;;;;;;;20170799;29;20138;-84
2022/04/02 17:30:36;;;;;;;1.38;0.45;;;;;;;;;;20172231;29;20049;-85
2022/04/02 17:40:38;;;;;;;0.50;0.30;;;;;;;;;;20174306;29;20049;-86
2022/04/02 17:50:49;;;;;;;0.80;0.25;;;;;;;;;;20171432;29;20053;-85
2022/04/02 18:00:55;;;;;;;0.93;0.40;;;;;;;;;;20187744;29;20081;-85
2022/04/02 18:10:57;;;;;;;;;;;;;;;;;;20170536;29;20055;-87
2022/04/02 18:21:07;;;;;;;0.43;0.30;;;;;;;;;;20200363;29;19924;-86
2022/04/02 18:31:09;;;;;;;0.20;0.20;;;;;;;;;;20200986;29;20140;-86
2022/04/02 18:41:11;;;;;;;0.20;0.20;;;;;;;;;;20168125;29;20061;-85
2022/04/02 18:51:13;;;;;;;0.20;0.20;;;;;;;;;;20183073;29;20183;-86
2022/04/02 19:01:15;;;;;;;1.63;0.55;;;;;;;;;;20199338;29;20411;-86
2022/04/02 19:11:18;;;;;;;0.50;0.20;;;;;;;;;;20167256;29;20132;-85
2022/04/02 19:21:20;;;;;;;0.32;0.20;;;;;;;;;;20181124;29;20093;-85
2022/04/02 19:31:22;;;;;;;0.20;0.20;;;;;;;;;;20180021;29;20437;-87
2022/04/02 19:41:24;;;;;;;0.30;0.30;;;;;;;;;;20179862;29;20484;-87
2022/04/02 19:51:27;;;;;;;0.43;0.35;;;;;;;;;;20178726;29;20048;-87
2022/04/02 20:01:32;;;;;;;0.98;0.30;;;;;;;;;;20195056;29;20053;-87
2022/04/02 20:11:34;;;;;;;0.80;0.20;;;;;;;;;;20177547;29;20455;-87
2022/04/02 20:21:37;;;;;;;0.20;0.20;;;;;;;;;;20176284;29;20312;-86
2022/04/02 20:31:39;;;;;;;0.63;0.40;;;;;;;;;;20192372;29;20051;-84
2022/04/02 20:41:42;;;;;;;0.45;0.30;;;;;;;;;;20173382;29;20057;-85
2022/04/02 20:51:44;;;;;;;0.50;0.50;;;;;;;;;;20189523;29;20057;-85
2022/04/02 21:01:46;;;;;;;0.28;0.25;;;;;;;;;;20171886;29;20132;-85
2022/04/02 21:11:48;;;;;;;0.40;0.40;;;;;;;;;;20140536;29;20112;-86
2022/04/02 21:21:49;;;;;;;0.82;0.30;;;;;;;;;;20124937;29;20500;-85
2022/04/02 21:31:51;;;;;;;0.30;0.30;;;;;;;;;;20187713;29;20055;-85
2022/04/02 21:42:00;;;;;;;0.60;0.40;;;;;;;;;;20170832;29;20548;-85
2022/04/02 21:52:04;;;;;;;0.90;0.30;;;;;;;;;;20177203;29;20056;-85
2022/04/02 22:02:10;;;;;;;0.52;0.30;;;;;;;;;;20200804;29;20048;-85
2022/04/02 22:12:11;;;;;;;;;;;;;;;;;;20184097;29;20543;-85
2022/04/02 22:22:13;;;;;;;1.02;0.30;;;;;;;;;;20199377;29;19924;-86
2022/04/02 22:32:15;;;;;;;0.50;0.32;;;;;;;;;;20181900;29;20049;-85
2022/04/02 22:42:17;;;;;;;0.38;0.30;;;;;;;;;;20166294;29;20065;-85
2022/04/02 22:52:19;;;;;;;0.40;0.25;;;;;;;;;;20197158;29;20045;-86
2022/04/02 23:02:26;;;;;;;0.30;0.30;;;;;;;;;;20178760;29;20089;-86
2022/04/02 23:12:27;;;;;;;0.35;0.30;;;;;;;;;;20195930;29;20045;-85
2022/04/02 23:22:29;;;;;;;0.30;0.30;;;;;;;;;;20178667;29;20117;-85
2022/04/02 23:32:32;;;;;;;0.30;0.30;;;;;;;;;;20194955;29;20045;-86
2022/04/02 23:42:34;;;;;;;0.30;0.30;;;;;;;;;;20178307;29;20048;-86
2022/04/02 23:52:36;;;;;;;0.40;0.40;;;;;;;;;;20192628;29;20087;-86
